Stanfield, Oregon
Current Conditions -  °F | °C
As of 6:53 AM on Friday 19 Dec 2014 (Local Time) from KHRI Reporting Station
Light Rain Light Rain  
Wind Chill: 36°   Ceiling: 4700
Heat Index: 39°   Visibility: 2.5mi
Dew Point: 37°   Wind: 5mph
Humidity: 93%   Direction: 170°S
Pressure: 29.92"   Gusts: NA
Location:  45.78°N, 119.22°W
Report Text: KHRI 191453Z AUTO 17004KT 2 1/2SM -RA BR BKN047 OVC055 04/03 A2992 RMK AO2 RAB00 SLP135 P0001 60001 T00390028 51007
Loading
Personal Weather Stations






























Interactive Weather Map New forecast layout! Learn more

10-Day Weather Forecast

Advertisements
Track Severe Weather on mobile